Time,TemperatureF,DewpointF,PressureIn,WindDirection,WindDirectionDegrees,WindSpeedMPH,WindSpeedGustMPH,Humidity,HourlyPrecipIn,Conditions,Clouds,dailyrainin,SolarRadiationWatts/m^2,SoftwareType,DateUTC
2013-06-10 00:22:00,69.0,29.0,-100.00,East,97,5.0,15.0,22,0.00,,,0.00,0.000000,,2013-06-10 06:22:00,
2013-06-10 00:32:00,69.0,29.0,-100.00,East,97,5.0,15.0,22,0.00,,,0.00,0.000000,,2013-06-10 06:32:00,
2013-06-10 00:42:00,69.0,29.0,-100.00,East,97,5.0,15.0,22,0.00,,,0.00,0.000000,,2013-06-10 06:42:00,
2013-06-10 00:52:00,69.0,29.0,-100.00,East,97,5.0,15.0,22,0.00,,,0.00,0.000000,,2013-06-10 06:52:00,
2013-06-10 01:22:00,66.0,28.0,-100.00,ESE,122,4.0,9.0,24,0.00,,,0.00,0.000000,,2013-06-10 07:22:00,
2013-06-10 01:42:00,66.0,28.0,-100.00,ESE,122,4.0,9.0,24,0.00,,,0.00,0.000000,,2013-06-10 07:42:00,
2013-06-10 01:52:00,66.0,28.0,-100.00,ESE,122,4.0,9.0,24,0.00,,,0.00,0.000000,,2013-06-10 07:52:00,
2013-06-10 02:22:00,64.0,28.0,-100.00,East,97,5.0,8.0,26,0.00,,,0.00,0.000000,,2013-06-10 08:22:00,
2013-06-10 02:32:00,64.0,28.0,-100.00,East,97,5.0,8.0,26,0.00,,,0.00,0.000000,,2013-06-10 08:32:00,
2013-06-10 02:42:00,64.0,28.0,-100.00,East,97,5.0,8.0,26,0.00,,,0.00,0.000000,,2013-06-10 08:42:00,
2013-06-10 02:52:00,64.0,28.0,-100.00,East,97,5.0,8.0,26,0.00,,,0.00,0.000000,,2013-06-10 08:52:00,
2013-06-10 03:42:00,63.0,29.0,-100.00,ESE,116,3.0,9.0,27,0.00,,,0.00,0.000000,,2013-06-10 09:42:00,
2013-06-10 03:53:00,63.0,29.0,-100.00,ESE,116,3.0,9.0,27,0.00,,,0.00,0.000000,,2013-06-10 09:53:00,
2013-06-10 04:22:00,60.0,24.0,-100.00,ESE,107,3.0,8.0,25,0.00,,,0.00,0.000000,,2013-06-10 10:22:00,
2013-06-10 04:33:00,60.0,24.0,-100.00,ESE,107,3.0,8.0,25,0.00,,,0.00,0.000000,,2013-06-10 10:33:00,
2013-06-10 04:42:00,60.0,24.0,-100.00,ESE,107,3.0,8.0,25,0.00,,,0.00,0.000000,,2013-06-10 10:42:00,
2013-06-10 04:52:00,60.0,24.0,-100.00,ESE,107,3.0,8.0,25,0.00,,,0.00,0.000000,,2013-06-10 10:52:00,
2013-06-10 08:22:00,71.0,28.0,-100.00,SSE,160,3.0,8.0,20,-99.99,,,0.00,334.000000,,2013-06-10 14:22:00,
2013-06-10 08:32:00,71.0,28.0,-100.00,SSE,160,3.0,8.0,20,-99.99,,,0.00,334.000000,,2013-06-10 14:32:00,
2013-06-10 08:42:00,71.0,28.0,-100.00,SSE,160,3.0,8.0,20,-99.99,,,0.00,334.000000,,2013-06-10 14:42:00,
2013-06-10 08:52:00,71.0,28.0,-100.00,SSE,160,3.0,8.0,20,-99.99,,,0.00,334.000000,,2013-06-10 14:52:00,
2013-06-10 09:22:00,82.0,26.0,-100.00,WSW,238,2.0,5.0,13,0.00,,,0.00,589.000000,,2013-06-10 15:22:00,
2013-06-10 09:33:00,82.0,26.0,-100.00,WSW,238,2.0,5.0,13,0.00,,,0.00,589.000000,,2013-06-10 15:33:00,
2013-06-10 09:43:00,82.0,26.0,-100.00,WSW,238,2.0,5.0,13,0.00,,,0.00,589.000000,,2013-06-10 15:43:00,
2013-06-10 09:53:00,82.0,26.0,-100.00,WSW,238,2.0,5.0,13,0.00,,,0.00,589.000000,,2013-06-10 15:53:00,
2013-06-10 10:23:00,90.0,24.0,-100.00,SSW,209,1.0,4.0,9,0.00,,,0.00,830.000000,,2013-06-10 16:23:00,
2013-06-10 10:33:00,90.0,24.0,-100.00,SSW,209,1.0,4.0,9,0.00,,,0.00,830.000000,,2013-06-10 16:33:00,
2013-06-10 10:42:00,90.0,24.0,-100.00,SSW,209,1.0,4.0,9,0.00,,,0.00,830.000000,,2013-06-10 16:42:00,
2013-06-10 10:52:00,90.0,24.0,-100.00,SSW,209,1.0,4.0,9,0.00,,,0.00,830.000000,,2013-06-10 16:52:00,
2013-06-10 11:26:00,94.0,17.0,-100.00,WSW,252,8.0,16.0,6,0.00,,,0.00,1039.000000,,2013-06-10 17:26:00,
2013-06-10 11:38:00,94.0,17.0,-100.00,WSW,252,8.0,16.0,6,0.00,,,0.00,1039.000000,,2013-06-10 17:38:00,
2013-06-10 11:48:00,94.0,17.0,-100.00,WSW,252,8.0,16.0,6,0.00,,,0.00,1039.000000,,2013-06-10 17:48:00,
2013-06-10 11:57:00,94.0,17.0,-100.00,WSW,252,8.0,16.0,6,0.00,,,0.00,1039.000000,,2013-06-10 17:57:00,
2013-06-10 12:24:00,94.0,17.0,-100.00,WSW,245,8.0,16.0,6,0.00,,,0.00,1155.000000,,2013-06-10 18:24:00,
2013-06-10 12:34:00,94.0,17.0,-100.00,WSW,245,8.0,16.0,6,0.00,,,0.00,1155.000000,,2013-06-10 18:34:00,
2013-06-10 12:48:00,94.0,17.0,-100.00,WSW,245,8.0,16.0,6,0.00,,,0.00,1155.000000,,2013-06-10 18:48:00,
2013-06-10 12:55:00,94.0,17.0,-100.00,WSW,245,8.0,16.0,6,0.00,,,0.00,1155.000000,,2013-06-10 18:55:00,
2013-06-10 13:22:00,98.0,16.0,-100.00,SSW,204,9.0,20.0,5,0.00,,,0.00,1272.000000,,2013-06-10 19:22:00,
2013-06-10 13:32:00,98.0,16.0,-100.00,SSW,204,9.0,20.0,5,0.00,,,0.00,1272.000000,,2013-06-10 19:32:00,
2013-06-10 13:42:00,98.0,16.0,-100.00,SSW,204,9.0,20.0,5,0.00,,,0.00,1272.000000,,2013-06-10 19:42:00,
2013-06-10 13:52:00,98.0,16.0,-100.00,SSW,204,9.0,20.0,5,0.00,,,0.00,1272.000000,,2013-06-10 19:52:00,
2013-06-10 14:22:00,97.0,15.0,-100.00,WSW,244,13.0,24.0,5,0.00,,,0.00,1184.000000,,2013-06-10 20:22:00,
2013-06-10 14:32:00,97.0,15.0,-100.00,WSW,244,13.0,24.0,5,0.00,,,0.00,1184.000000,,2013-06-10 20:32:00,
2013-06-10 14:43:00,97.0,15.0,-100.00,WSW,244,13.0,24.0,5,0.00,,,0.00,1184.000000,,2013-06-10 20:43:00,
2013-06-10 14:52:00,97.0,15.0,-100.00,WSW,244,13.0,24.0,5,0.00,,,0.00,1184.000000,,2013-06-10 20:52:00,
2013-06-10 15:22:00,96.0,9.0,-100.00,SSW,204,15.0,25.0,4,0.00,,,0.00,1219.000000,,2013-06-10 21:22:00,
2013-06-10 15:33:00,96.0,9.0,-100.00,SSW,204,15.0,25.0,4,0.00,,,0.00,1219.000000,,2013-06-10 21:33:00,
2013-06-10 15:43:00,96.0,9.0,-100.00,SSW,204,15.0,25.0,4,0.00,,,0.00,1219.000000,,2013-06-10 21:43:00,
2013-06-10 15:53:00,96.0,9.0,-100.00,SSW,204,15.0,25.0,4,0.00,,,0.00,1219.000000,,2013-06-10 21:53:00,
2013-06-10 16:22:00,97.0,10.0,-100.00,SW,227,12.0,29.0,4,0.00,,,0.00,1160.000000,,2013-06-10 22:22:00,
2013-06-10 16:33:00,97.0,10.0,-100.00,SW,227,12.0,29.0,4,0.00,,,0.00,1160.000000,,2013-06-10 22:33:00,
2013-06-10 16:42:00,97.0,10.0,-100.00,SW,227,12.0,29.0,4,0.00,,,0.00,1160.000000,,2013-06-10 22:42:00,
2013-06-10 16:52:00,97.0,10.0,-100.00,SW,227,12.0,29.0,4,0.00,,,0.00,1160.000000,,2013-06-10 22:52:00,
2013-06-10 17:22:00,97.0,10.0,-100.00,WSW,239,14.0,29.0,4,0.00,,,0.00,986.000000,,2013-06-10 23:22:00,
2013-06-10 17:32:00,97.0,10.0,-100.00,WSW,239,14.0,29.0,4,0.00,,,0.00,986.000000,,2013-06-10 23:32:00,
2013-06-10 17:42:00,97.0,10.0,-100.00,WSW,239,14.0,29.0,4,0.00,,,0.00,986.000000,,2013-06-10 23:42:00,
2013-06-10 17:52:00,97.0,10.0,-100.00,WSW,239,14.0,29.0,4,0.00,,,0.00,986.000000,,2013-06-10 23:52:00,
2013-06-10 18:22:00,95.0,14.0,-100.00,SSW,208,12.0,32.0,5,0.00,,,0.00,431.000000,,2013-06-11 00:22:00,
2013-06-10 18:32:00,95.0,14.0,-100.00,SSW,208,12.0,32.0,5,0.00,,,0.00,431.000000,,2013-06-11 00:32:00,
2013-06-10 18:42:00,95.0,14.0,-100.00,SSW,208,12.0,32.0,5,0.00,,,0.00,431.000000,,2013-06-11 00:42:00,
2013-06-10 18:52:00,95.0,14.0,-100.00,SSW,208,12.0,32.0,5,0.00,,,0.00,431.000000,,2013-06-11 00:52:00,
2013-06-10 19:22:00,91.0,11.0,-100.00,SW,228,13.0,27.0,5,0.00,,,0.00,162.000000,,2013-06-11 01:22:00,
2013-06-10 19:32:00,91.0,11.0,-100.00,SW,228,13.0,27.0,5,0.00,,,0.00,162.000000,,2013-06-11 01:32:00,
2013-06-10 19:42:00,91.0,11.0,-100.00,SW,228,13.0,27.0,5,0.00,,,0.00,162.000000,,2013-06-11 01:42:00,
2013-06-10 19:52:00,91.0,11.0,-100.00,SW,228,13.0,27.0,5,0.00,,,0.00,162.000000,,2013-06-11 01:52:00,
2013-06-10 20:22:00,89.0,9.0,-100.00,SW,225,14.0,28.0,5,0.00,,,0.00,89.000000,,2013-06-11 02:22:00,
2013-06-10 20:32:00,89.0,9.0,-100.00,SW,225,14.0,28.0,5,0.00,,,0.00,89.000000,,2013-06-11 02:32:00,
2013-06-10 20:42:00,89.0,9.0,-100.00,SW,225,14.0,28.0,5,0.00,,,0.00,89.000000,,2013-06-11 02:42:00,
2013-06-10 20:52:00,89.0,9.0,-100.00,SW,225,14.0,28.0,5,0.00,,,0.00,89.000000,,2013-06-11 02:52:00,
2013-06-10 21:22:00,85.0,7.0,-100.00,SW,235,5.0,20.0,5,0.00,,,0.00,16.000000,,2013-06-11 03:22:00,
2013-06-10 21:32:00,85.0,7.0,-100.00,SW,235,5.0,20.0,5,0.00,,,0.00,16.000000,,2013-06-11 03:32:00,
2013-06-10 21:43:00,85.0,7.0,-100.00,SW,235,5.0,20.0,5,0.00,,,0.00,16.000000,,2013-06-11 03:43:00,
2013-06-10 21:53:00,85.0,7.0,-100.00,SW,235,5.0,20.0,5,0.00,,,0.00,16.000000,,2013-06-11 03:53:00,
2013-06-10 22:23:00,82.0,4.0,-100.00,SW,227,4.0,14.0,5,0.00,,,0.00,0.000000,,2013-06-11 04:23:00,
2013-06-10 22:33:00,82.0,4.0,-100.00,SW,227,4.0,14.0,5,0.00,,,0.00,0.000000,,2013-06-11 04:33:00,
2013-06-10 22:42:00,82.0,4.0,-100.00,SW,227,4.0,14.0,5,0.00,,,0.00,0.000000,,2013-06-11 04:42:00,
2013-06-10 22:52:00,82.0,4.0,-100.00,SW,227,4.0,14.0,5,0.00,,,0.00,0.000000,,2013-06-11 04:52:00,
2013-06-10 23:22:00,78.0,6.0,-100.00,SE,141,5.0,12.0,6,0.00,,,0.00,0.000000,,2013-06-11 05:22:00,
2013-06-10 23:32:00,78.0,6.0,-100.00,SE,141,5.0,12.0,6,0.00,,,0.00,0.000000,,2013-06-11 05:32:00,
2013-06-10 23:42:00,78.0,6.0,-100.00,SE,141,5.0,12.0,6,0.00,,,0.00,0.000000,,2013-06-11 05:42:00,
2013-06-10 23:52:00,78.0,6.0,-100.00,SE,141,5.0,12.0,6,0.00,,,0.00,0.000000,,2013-06-11 05:52:00,